GABS/BKO METAR and TAF weather

Enter ICAO airport designator
Station Type Date Time Source
GABS METAR 2023/01/29 18:30 UTC NOAA

GABS 291830Z 06007KT CAVOK 29/M04 Q1011 NOSIG


Station Type Date Time Source
GABS Decoded METAR 2023/01/29 18:30 UTC NOAA

Bamako / Senou, Mali (GABS) 12-32N 007-57W 381M
Jan 29, 2023 - 01:30 PM EST / 2023.01.29 1830 UTC
Wind: from the ENE (060 degrees) at 8 MPH (7 KT):0
Visibility: greater than 7 mile(s):0
Temperature: 84 F (29 C)
Dew Point: 24 F (-4 C)
Relative Humidity: 11%
Pressure (altimeter): 29.85 in. Hg (1011 hPa)
ob: GABS 291830Z 06007KT CAVOK 29/M04 Q1011 NOSIG
cycle: 18

Station Type Date Time Source
GABS TAF 2023/01/29 18:09 UTC NOAA

TAF TAF GABS 291700Z 2918/3024 06008KT CAVOK

Example: see airport list